Time;durP1;ratioP1;P1;durP2;ratioP2;P2;SDS_P1;SDS_P2;PMS_P1;PMS_P2;Temp;Humidity;BMP_temperature;BMP_pressure;BME280_temperature;BME280_humidity;BME280_pressure;Samples;Min_cycle;Max_cycle;Signal;HPM_P1;HPM_P2
2023/04/14 00:01:32;;;;;;;;;;;;;;;-140.72;100.00;52934.69;5023952;28;19929;-71
2023/04/14 00:03:58;;;;;;;;;;;;;;;-140.72;100.00;52930.66;5021864;28;20032;-71
2023/04/14 00:06:23;;;;;;;;;;;;;;;-140.72;100.00;52918.47;5019623;28;19925;-71
2023/04/14 00:08:48;;;;;;;;;;;;;;;-140.72;100.00;52918.47;5021683;28;19945;-71
2023/04/14 00:11:13;;;;;;;;;;;;;;;-140.72;100.00;52969.19;5024063;28;19932;-71
2023/04/14 00:13:39;;;;;;;;;;;;;;;-140.72;100.00;52975.28;5024163;28;19921;-70
2023/04/14 00:16:05;;;;;;;;;;;;;;;-140.72;100.00;52977.31;5025655;28;20016;-72
2023/04/14 00:18:30;;;;;;;;;;;;;;;-140.72;100.00;52946.88;5027485;28;19944;-71
2023/04/14 00:20:55;;;;;;;;;;;;;;;-140.72;100.00;52906.28;5026468;28;19921;-71
2023/04/14 00:23:20;;;;;;;;;;;;;;;-140.72;100.00;52957.03;5026041;28;19929;-71
2023/04/14 00:25:46;;;;;;;;;;;;;;;-140.72;100.00;52975.28;5025423;28;19929;-71
2023/04/14 00:28:11;;;;;;;;;;;;;;;-140.72;100.00;52938.75;5027364;28;19933;-71
2023/04/14 00:30:36;;;;;;;;;;;;;;;-140.72;100.00;52952.97;5021030;28;19929;-72
2023/04/14 00:33:01;;;;;;;;;;;;;;;-140.72;100.00;52930.66;5023921;28;19921;-71
2023/04/14 00:35:27;;;;;;;;;;;;;;;-140.72;100.00;52944.84;5025151;28;20019;-71
2023/04/14 00:37:52;;;;;;;;;;;;;;;-140.72;100.00;52950.94;5025379;28;19929;-71
2023/04/14 00:40:17;;;;;;;;;;;;;;;-140.72;100.00;52959.06;5020413;28;19924;-71
2023/04/14 00:42:43;;;;;;;;;;;;;;;-140.72;100.00;52906.28;5022481;28;19921;-71
2023/04/14 00:45:09;;;;;;;;;;;;;;;-140.72;100.00;52936.72;5024043;28;19929;-71
2023/04/14 00:47:35;;;;;;;;;;;;;;;-140.72;100.00;52955.00;5024305;28;19921;-71
2023/04/14 00:50:01;;;;;;;;;;;;;;;-140.72;100.00;52957.03;5019054;28;19965;-71
2023/04/14 00:52:26;;;;;;;;;;;;;;;-140.72;100.00;52924.56;5021439;28;19933;-71
2023/04/14 00:54:52;;;;;;;;;;;;;;;-140.72;100.00;52924.56;5021489;28;20350;-71
2023/04/14 00:57:17;;;;;;;;;;;;;;;-140.72;100.00;52932.66;5024636;28;19925;-71
2023/04/14 00:59:42;;;;;;;;;;;;;;;-140.72;100.00;52938.75;5024685;28;19925;-71
2023/04/14 01:02:07;;;;;;;;;;;;;;;-140.72;100.00;52959.06;5023992;28;19921;-71
2023/04/14 01:04:32;;;;;;;;;;;;;;;-140.72;100.00;52942.81;5021658;28;19985;-71
2023/04/14 01:06:58;;;;;;;;;;;;;;;-140.72;100.00;52950.94;5021851;28;19929;-71
2023/04/14 01:09:24;;;;;;;;;;;;;;;-140.72;100.00;52963.13;5022199;28;19929;-71
2023/04/14 01:12:06;;;;;;;;;;;;;;;-140.72;100.00;52944.84;5019526;28;19921;-71
2023/04/14 01:14:43;;;;;;;;;;;;;;;-140.72;100.00;52944.84;5020153;27;19937;-72
2023/04/14 01:17:15;;;;;;;;;;;;;;;-140.72;100.00;52967.16;5019057;28;19921;-71
2023/04/14 01:19:59;;;;;;;;;;;;;;;-140.72;100.00;52950.94;5024911;28;19956;-72
2023/04/14 01:22:28;;;;;;;;;;;;;;;-140.72;100.00;52942.81;5023187;28;19990;-71
2023/04/14 01:25:06;;;;;;;;;;;;;;;-140.72;100.00;52959.06;5022486;28;20012;-71
2023/04/14 01:27:50;;;;;;;;;;;;;;;-140.72;100.00;52967.16;5026702;27;19925;-71
2023/04/14 01:30:27;;;;;;;;;;;;;;;-140.72;100.00;52924.56;5034982;28;19921;-71
2023/04/14 01:32:55;;;;;;;;;;;;;;;-140.72;100.00;52906.28;5022449;28;19927;-71
2023/04/14 01:35:28;;;;;;;;;;;;;;;-140.72;100.00;52938.75;5024786;28;19944;-71
2023/04/14 01:37:57;;;;;;;;;;;;;;;-140.72;100.00;52918.47;5023382;28;19964;-71
2023/04/14 01:40:23;;;;;;;;;;;;;;;-140.72;100.00;52938.75;5024377;28;19986;-71
2023/04/14 01:42:55;;;;;;;;;;;;;;;-140.72;100.00;52924.56;5026615;28;20028;-71
2023/04/14 01:45:25;;;;;;;;;;;;;;;-140.72;100.00;52922.53;5023000;28;19935;-71
2023/04/14 01:47:51;;;;;;;;;;;;;;;-140.72;100.00;52938.75;5024114;28;20362;-71
2023/04/14 01:50:17;;;;;;;;;;;;;;;-140.72;100.00;52944.84;5025593;28;19929;-72
2023/04/14 01:52:43;;;;;;;;;;;;;;;-140.72;100.00;52955.00;5029671;28;19968;-71
2023/04/14 01:55:10;;;;;;;;;;;;;;;-140.72;100.00;52928.63;5025322;28;20456;-71
2023/04/14 01:57:37;;;;;;;;;;;;;;;-140.72;100.00;52955.00;5024037;28;19972;-71
2023/04/14 02:00:03;;;;;;;;;;;;;;;-140.72;100.00;52977.31;5024235;28;20059;-71
2023/04/14 02:02:29;;;;;;;;;;;;;;;-140.72;100.00;52979.34;5022595;28;19929;-71
2023/04/14 02:04:56;;;;;;;;;;;;;;;-140.72;100.00;52930.66;5025542;28;20364;-71
2023/04/14 02:07:22;;;;;;;;;;;;;;;-140.72;100.00;52946.88;5025684;28;20700;-71
2023/04/14 02:09:48;;;;;;;;;;;;;;;-140.72;100.00;52991.53;5025456;28;19966;-71
2023/04/14 02:12:13;;;;;;;;;;;;;;;-140.72;100.00;52955.00;5025147;28;19933;-72
2023/04/14 02:14:42;;;;;;;;;;;;;;;-140.72;100.00;52959.06;5030990;28;20735;-72
2023/04/14 02:17:08;;;;;;;;;;;;;;;-140.72;100.00;52999.66;5021766;28;20394;-72
2023/04/14 02:19:34;;;;;;;;;;;;;;;-140.72;100.00;52948.91;5028475;28;20001;-72
2023/04/14 02:22:01;;;;;;;;;;;;;;;-140.72;100.00;52975.28;5016906;28;19997;-72
2023/04/14 02:24:27;;;;;;;;;;;;;;;-140.72;100.00;52979.34;5028434;28;19978;-71
2023/04/14 02:26:54;;;;;;;;;;;;;;;-140.72;100.00;52967.16;5026177;28;20321;-71
2023/04/14 02:29:21;;;;;;;;;;;;;;;-140.72;100.00;52963.13;5024495;28;19961;-71
2023/04/14 02:31:49;;;;;;;;;;;;;;;-140.72;100.00;52938.75;5027325;28;19921;-71
2023/04/14 02:34:17;;;;;;;;;;;;;;;-140.72;100.00;52946.88;5032005;28;19928;-71
2023/04/14 02:36:46;;;;;;;;;;;;;;;-140.72;100.00;52971.22;5036244;28;20053;-70
2023/04/14 02:39:16;;;;;;;;;;;;;;;-140.72;100.00;52991.53;5016705;28;19964;-71
2023/04/14 02:41:43;;;;;;;;;;;;;;;-140.72;100.00;52952.97;5042730;27;19921;-71
2023/04/14 02:44:08;;;;;;;;;;;;;;;-140.72;100.00;52955.00;5028065;28;19928;-71
2023/04/14 02:46:39;;;;;;;;;;;;;;;-140.72;100.00;52971.22;5040985;28;19917;-71
2023/04/14 02:49:05;;;;;;;;;;;;;;;-140.72;100.00;52957.03;5028254;28;20279;-71
2023/04/14 02:51:33;;;;;;;;;;;;;;;-140.72;100.00;52930.66;5023100;28;19927;-71
2023/04/14 02:53:59;;;;;;;;;;;;;;;-140.72;100.00;52952.97;5026119;28;20246;-71
2023/04/14 02:56:25;;;;;;;;;;;;;;;-140.72;100.00;53005.72;5024288;28;19921;-71
2023/04/14 02:58:51;;;;;;;;;;;;;;;-140.72;100.00;52985.44;5025399;28;20280;-71
2023/04/14 03:01:17;;;;;;;;;;;;;;;-140.72;100.00;53003.69;5024151;28;20015;-71
2023/04/14 03:03:43;;;;;;;;;;;;;;;-140.72;100.00;52975.28;5023501;28;19921;-71
2023/04/14 03:06:08;;;;;;;;;;;;;;;-140.72;100.00;52987.47;5027138;28;20267;-71
2023/04/14 03:08:35;;;;;;;;;;;;;;;-140.72;100.00;52944.84;5022622;28;19921;-71
2023/04/14 03:11:01;;;;;;;;;;;;;;;-140.72;100.00;52973.25;5022944;28;20065;-71
2023/04/14 03:13:27;;;;;;;;;;;;;;;-140.72;100.00;52991.53;5022546;28;20345;-71
2023/04/14 03:15:52;;;;;;;;;;;;;;;-140.72;100.00;52955.00;5039849;28;19988;-71
2023/04/14 03:18:19;;;;;;;;;;;;;;;-140.72;100.00;52981.38;5024669;28;19928;-71
2023/04/14 03:20:46;;;;;;;;;;;;;;;-140.72;100.00;52971.22;5025726;28;20264;-71
2023/04/14 03:23:12;;;;;;;;;;;;;;;-140.72;100.00;52977.31;5022130;28;19936;-69
2023/04/14 03:25:38;;;;;;;;;;;;;;;-140.72;100.00;52971.22;5024398;28;19921;-71
2023/04/14 03:28:08;;;;;;;;;;;;;;;-140.72;100.00;52999.66;5025450;28;19925;-71
2023/04/14 03:30:35;;;;;;;;;;;;;;;-140.72;100.00;52950.94;5024846;28;20323;-71
2023/04/14 03:33:02;;;;;;;;;;;;;;;-140.72;100.00;52983.41;5022937;28;19921;-71
2023/04/14 03:35:28;;;;;;;;;;;;;;;-140.72;100.00;52975.28;5019168;28;20275;-71
2023/04/14 03:37:58;;;;;;;;;;;;;;;-140.72;100.00;52995.59;5022127;28;19967;-71
2023/04/14 03:40:29;;;;;;;;;;;;;;;-140.72;100.00;52979.34;5039182;28;19955;-71
2023/04/14 03:42:57;;;;;;;;;;;;;;;-140.72;100.00;53003.69;5023145;28;20402;-70
2023/04/14 03:45:23;;;;;;;;;;;;;;;-140.72;100.00;52993.56;5024709;28;19925;-71
2023/04/14 03:47:48;;;;;;;;;;;;;;;-140.72;100.00;52967.16;5026951;28;20367;-70
2023/04/14 03:50:15;;;;;;;;;;;;;;;-140.72;100.00;53036.16;5029716;28;19928;-70
2023/04/14 03:52:41;;;;;;;;;;;;;;;-140.72;100.00;52987.47;5026581;28;19921;-70
2023/04/14 03:55:11;;;;;;;;;;;;;;;-140.72;100.00;53001.66;5037368;28;19921;-71
2023/04/14 03:57:38;;;;;;;;;;;;;;;-140.72;100.00;52979.34;5027312;28;19930;-70
2023/04/14 04:00:07;;;;;;;;;;;;;;;-140.72;100.00;52971.22;5026720;28;20291;-71
2023/04/14 04:02:32;;;;;;;;;;;;;;;-140.72;100.00;52973.25;5026956;28;19921;-71
2023/04/14 04:04:58;;;;;;;;;;;;;;;-140.72;100.00;52952.97;5025500;28;19928;-70
2023/04/14 04:07:25;;;;;;;;;;;;;;;-140.72;100.00;52952.97;5026892;28;19929;-71
2023/04/14 04:09:51;;;;;;;;;;;;;;;-140.72;100.00;52995.59;5035660;28;19925;-71
2023/04/14 04:12:18;;;;;;;;;;;;;;;-140.72;100.00;52997.63;5025576;28;20295;-71
2023/04/14 04:14:43;;;;;;;;;;;;;;;-140.72;100.00;53009.78;5026553;27;20010;-71
2023/04/14 04:17:11;;;;;;;;;;;;;;;-140.72;100.00;52985.44;5029117;28;20385;-72
2023/04/14 04:19:37;;;;;;;;;;;;;;;-140.72;100.00;52993.56;5027276;28;20027;-73
2023/04/14 04:22:03;;;;;;;;;;;;;;;-140.72;100.00;53001.66;5028245;28;20017;-71
2023/04/14 04:24:30;;;;;;;;;;;;;;;-140.72;100.00;53015.88;5025496;28;20385;-71
2023/04/14 04:26:56;;;;;;;;;;;;;;;-140.72;100.00;52995.59;5025567;28;19925;-71
2023/04/14 04:29:22;;;;;;;;;;;;;;;-140.72;100.00;53005.72;5023904;28;19925;-71
2023/04/14 04:31:47;;;;;;;;;;;;;;;-140.72;100.00;52971.22;5025726;28;19921;-71
2023/04/14 04:34:14;;;;;;;;;;;;;;;-140.72;100.00;52983.41;5025274;28;19925;-71
2023/04/14 04:36:40;;;;;;;;;;;;;;;-140.72;100.00;53015.88;5024429;28;20274;-71
2023/04/14 04:39:05;;;;;;;;;;;;;;;-140.72;100.00;53007.75;5025105;28;20004;-71
2023/04/14 04:41:30;;;;;;;;;;;;;;;-140.72;100.00;53003.69;5029747;28;19921;-71
2023/04/14 04:43:56;;;;;;;;;;;;;;;-140.72;100.00;52979.34;5024383;28;19936;-72
2023/04/14 04:46:40;;;;;;;;;;;;;;;-140.72;100.00;52995.59;5030278;28;19943;-71
2023/04/14 04:49:05;;;;;;;;;;;;;;;-140.72;100.00;53013.84;5025519;27;19921;-70
2023/04/14 04:51:30;;;;;;;;;;;;;;;-140.72;100.00;52987.47;5024894;28;19932;-69
2023/04/14 04:53:55;;;;;;;;;;;;;;;-140.72;100.00;53005.72;5031455;28;19929;-70
2023/04/14 04:56:21;;;;;;;;;;;;;;;-140.72;100.00;52995.59;5028128;28;20379;-71
2023/04/14 04:58:47;;;;;;;;;;;;;;;-140.72;100.00;52995.59;5023017;28;20012;-72
2023/04/14 05:01:13;;;;;;;;;;;;;;;-140.72;100.00;52995.59;5025557;28;19928;-71
2023/04/14 05:03:39;;;;;;;;;;;;;;;-140.72;100.00;52999.66;5024936;28;19921;-71
2023/04/14 05:06:04;;;;;;;;;;;;;;;-140.72;100.00;52955.00;5025234;28;19921;-71
2023/04/14 05:08:29;;;;;;;;;;;;;;;-140.72;100.00;52995.59;5024992;28;20367;-71
2023/04/14 05:10:55;;;;;;;;;;;;;;;-140.72;100.00;52987.47;5025558;28;20372;-71
2023/04/14 05:13:21;;;;;;;;;;;;;;;-140.72;100.00;52973.25;5023357;28;19969;-71
2023/04/14 05:15:47;;;;;;;;;;;;;;;-140.72;100.00;53001.66;5024179;28;19925;-70
2023/04/14 05:18:12;;;;;;;;;;;;;;;-140.72;100.00;52973.25;5024197;28;19978;-76
2023/04/14 05:20:37;;;;;;;;;;;;;;;-140.72;100.00;53024.00;5026899;28;19961;-71
2023/04/14 05:23:03;;;;;;;;;;;;;;;-140.72;100.00;53001.66;5025569;28;21683;-71
2023/04/14 05:25:28;;;;;;;;;;;;;;;-140.72;100.00;52975.28;5020738;28;20007;-70
2023/04/14 05:27:53;;;;;;;;;;;;;;;-140.72;100.00;53011.81;5024739;28;20587;-72
2023/04/14 05:30:18;;;;;;;;;;;;;;;-140.72;100.00;52985.44;5023884;28;19974;-70
2023/04/14 05:32:43;;;;;;;;;;;;;;;-140.72;100.00;52999.66;5023974;28;19925;-70
2023/04/14 05:35:09;;;;;;;;;;;;;;;-140.72;100.00;53005.72;5024140;28;20019;-70
2023/04/14 05:37:34;;;;;;;;;;;;;;;-140.72;100.00;52991.53;5026181;28;19938;-70
2023/04/14 05:39:59;;;;;;;;;;;;;;;-140.72;100.00;53034.16;5021822;28;19921;-70
2023/04/14 05:42:25;;;;;;;;;;;;;;;-140.72;100.00;52987.47;5024955;28;20351;-70
2023/04/14 05:44:50;;;;;;;;;;;;;;;-140.72;100.00;52942.81;5023503;28;19989;-70
2023/04/14 05:47:15;;;;;;;;;;;;;;;-140.72;100.00;52989.50;5026227;28;19925;-70
2023/04/14 05:49:40;;;;;;;;;;;;;;;-140.72;100.00;52983.41;5024397;28;20341;-70
2023/04/14 05:52:05;;;;;;;;;;;;;;;-140.72;100.00;53007.75;5025142;28;20004;-70
2023/04/14 05:54:31;;;;;;;;;;;;;;;-140.72;100.00;53003.69;5020760;28;19982;-70
2023/04/14 05:56:56;;;;;;;;;;;;;;;-140.72;100.00;52979.34;5023190;28;19925;-70
2023/04/14 05:59:21;;;;;;;;;;;;;;;-140.72;100.00;52991.53;5024827;28;19921;-71
2023/04/14 06:01:46;;;;;;;;;;;;;;;-140.72;100.00;52981.38;5027859;28;19925;-71
2023/04/14 06:04:14;;;;;;;;;;;;;;;-140.72;100.00;52965.16;5023499;28;20272;-72
2023/04/14 06:06:39;;;;;;;;;;;;;;;-140.72;100.00;52999.66;5023335;28;19960;-73
2023/04/14 06:09:04;;;;;;;;;;;;;;;-140.72;100.00;53013.84;5024452;28;19976;-72
2023/04/14 06:11:30;;;;;;;;;;;;;;;-140.72;100.00;52955.00;5033663;28;19917;-72
2023/04/14 06:13:56;;;;;;;;;;;;;;;-140.72;100.00;52957.03;5022240;28;20384;-72
2023/04/14 06:16:21;;;;;;;;;;;;;;;-140.72;100.00;52979.34;5022756;28;19969;-72
2023/04/14 06:18:46;;;;;;;;;;;;;;;-140.72;100.00;52977.31;5030604;28;20353;-81
2023/04/14 06:21:11;;;;;;;;;;;;;;;-140.72;100.00;52938.75;5029103;28;19943;-73
2023/04/14 06:23:37;;;;;;;;;;;;;;;-140.72;100.00;52946.88;5029335;28;19921;-74
2023/04/14 06:26:04;;;;;;;;;;;;;;;-140.72;100.00;52973.25;5072392;27;20382;-71
2023/04/14 06:28:29;;;;;;;;;;;;;;;-140.72;100.00;52957.03;5017855;28;19921;-71
2023/04/14 06:30:54;;;;;;;;;;;;;;;-140.72;100.00;52975.28;5029193;28;19978;-70
2023/04/14 06:33:20;;;;;;;;;;;;;;;-140.72;100.00;52969.19;5030471;28;19917;-70
2023/04/14 06:35:45;;;;;;;;;;;;;;;-140.72;100.00;52952.97;5040091;28;19917;-71
2023/04/14 06:38:10;;;;;;;;;;;;;;;-140.72;100.00;52950.94;5031166;28;19921;-71
2023/04/14 06:40:36;;;;;;;;;;;;;;;-140.72;100.00;52973.25;5023727;28;20012;-71
2023/04/14 06:43:01;;;;;;;;;;;;;;;-140.72;100.00;52957.03;5025579;28;19963;-72
2023/04/14 06:45:26;;;;;;;;;;;;;;;-140.72;100.00;52944.84;5036165;28;19966;-72
2023/04/14 06:47:51;;;;;;;;;;;;;;;-140.72;100.00;52957.03;5035126;28;19917;-71
2023/04/14 06:50:17;;;;;;;;;;;;;;;-140.72;100.00;52955.00;5028176;28;19981;-71
2023/04/14 06:52:42;;;;;;;;;;;;;;;-140.72;100.00;52942.81;5049902;28;19921;-71
2023/04/14 06:55:08;;;;;;;;;;;;;;;-140.72;100.00;52934.69;5021794;28;19953;-71
2023/04/14 06:57:33;;;;;;;;;;;;;;;-140.72;100.00;52922.53;5032929;27;19921;-71
2023/04/14 06:59:58;;;;;;;;;;;;;;;-140.72;100.00;52942.81;5027492;28;20367;-71
2023/04/14 07:02:23;;;;;;;;;;;;;;;-140.72;100.00;52938.75;5032355;28;19925;-71
2023/04/14 07:04:48;;;;;;;;;;;;;;;-140.72;100.00;52971.22;5016751;28;19924;-70
2023/04/14 07:07:14;;;;;;;;;;;;;;;-140.72;100.00;52914.41;5028407;28;20290;-71
2023/04/14 07:09:42;;;;;;;;;;;;;;;-140.72;100.00;52924.56;5041604;27;19921;-70
2023/04/14 07:12:13;;;;;;;;;;;;;;;-140.72;100.00;52918.47;5046187;27;20490;-69
2023/04/14 07:14:39;;;;;;;;;;;;;;;-140.72;100.00;52916.44;5033661;27;20378;-70
2023/04/14 07:17:05;;;;;;;;;;;;;;;-140.72;100.00;52869.75;5030445;28;19921;-70
2023/04/14 07:19:31;;;;;;;;;;;;;;;-140.72;100.00;52920.50;5030350;28;19919;-71
2023/04/14 07:21:56;;;;;;;;;;;;;;;-140.72;100.00;52914.41;5027882;28;19917;-73
2023/04/14 07:24:21;;;;;;;;;;;;;;;-140.72;100.00;52906.28;5020462;28;20012;-72
2023/04/14 07:26:47;;;;;;;;;;;;;;;-140.72;100.00;52900.19;5012123;28;20355;-72
2023/04/14 07:29:12;;;;;;;;;;;;;;;-140.72;100.00;52865.69;5023644;28;19944;-73
2023/04/14 07:31:38;;;;;;;;;;;;;;;-140.72;100.00;52833.22;5015474;28;19994;-78
2023/04/14 07:34:04;;;;;;;;;;;;;;;-140.72;100.00;52902.22;5018459;28;20019;-74
2023/04/14 07:36:30;;;;;;;;;;;;;;;-140.72;100.00;52873.81;5025857;28;19963;-72
2023/04/14 07:38:55;;;;;;;;;;;;;;;-140.72;100.00;52900.19;5027756;28;19921;-73
2023/04/14 07:41:21;;;;;;;;;;;;;;;-140.72;100.00;52902.22;5023151;28;19964;-73
2023/04/14 07:43:46;;;;;;;;;;;;;;;-140.72;100.00;52914.41;5014495;28;19929;-72
2023/04/14 07:46:11;;;;;;;;;;;;;;;-140.72;100.00;52861.66;5043925;28;20439;-73
2023/04/14 07:48:36;;;;;;;;;;;;;;;-140.72;100.00;52875.84;5014561;28;19935;-72
2023/04/14 07:51:03;;;;;;;;;;;;;;;-140.72;100.00;52873.81;5036205;28;20438;-73
2023/04/14 07:53:28;;;;;;;;;;;;;;;-140.72;100.00;52936.72;5014208;28;20379;-73
2023/04/14 07:55:54;;;;;;;;;;;;;;;-140.72;100.00;52845.41;5023191;28;19932;-71
2023/04/14 07:58:19;;;;;;;;;;;;;;;-140.72;100.00;52906.28;5019757;28;19966;-71
2023/04/14 08:00:44;;;;;;;;;;;;;;;-140.72;100.00;52851.50;5024317;28;19925;-71
2023/04/14 08:03:10;;;;;;;;;;;;;;;-140.72;100.00;52833.22;5020491;28;19932;-71
2023/04/14 08:05:35;;;;;;;;;;;;;;;-140.72;100.00;52857.59;5022268;28;19973;-70
2023/04/14 08:08:00;;;;;;;;;;;;;;;-140.72;100.00;52855.56;5022179;28;19930;-71
2023/04/14 08:10:26;;;;;;;;;;;;;;;-140.72;100.00;52835.25;5021603;28;19936;-71
2023/04/14 08:12:51;;;;;;;;;;;;;;;-140.72;100.00;52829.19;5021408;28;19970;-71
2023/04/14 08:15:17;;;;;;;;;;;;;;;-140.72;100.00;52845.41;5023807;28;19921;-71
2023/04/14 08:17:42;;;;;;;;;;;;;;;-140.72;100.00;52849.47;5022039;28;19925;-71
2023/04/14 08:20:07;;;;;;;;;;;;;;;-140.72;100.00;52894.13;5022480;28;19941;-70
2023/04/14 08:22:33;;;;;;;;;;;;;;;-140.72;100.00;52831.19;5020752;28;20014;-71
2023/04/14 08:24:58;;;;;;;;;;;;;;;-140.72;100.00;52851.50;5022352;28;19921;-70
2023/04/14 08:27:24;;;;;;;;;;;;;;;-140.72;100.00;52821.06;5021665;28;19928;-71
2023/04/14 08:29:50;;;;;;;;;;;;;;;-140.72;100.00;52845.41;5021899;28;19928;-70
2023/04/14 08:32:15;;;;;;;;;;;;;;;-140.72;100.00;52863.66;5039595;28;19947;-70
2023/04/14 08:34:41;;;;;;;;;;;;;;;-140.72;100.00;52817.00;5022217;28;19929;-70
2023/04/14 08:37:06;;;;;;;;;;;;;;;-140.72;100.00;52821.06;5025020;28;20016;-70
2023/04/14 08:39:31;;;;;;;;;;;;;;;-140.72;93.93;52823.09;5026035;28;19931;-70
2023/04/14 08:41:57;;;;;;;;;;;;;;;-140.72;73.89;52833.22;5025921;28;19928;-70
2023/04/14 08:44:22;;;;;;;;;;;;;;;-140.72;73.64;52804.81;5025122;28;19922;-70
2023/04/14 08:46:49;;;;;;;;;;;;;;;-140.72;34.00;52790.63;5025973;28;19968;-71
2023/04/14 08:49:18;;;;;;;;;;;;;;;-140.72;0.00;52772.34;5025213;28;19921;-70
2023/04/14 08:51:44;;;;;;;;;;;;;;;-140.72;0.00;52790.63;5023779;28;19928;-70
2023/04/14 08:54:10;;;;;;;;;;;;;;;-140.72;0.00;52756.13;5026379;28;19929;-70
2023/04/14 08:56:40;;;;;;;;;;;;;;;-140.72;0.00;52764.25;5025981;28;19964;-70
2023/04/14 08:59:05;;;;;;;;;;;;;;;-140.72;0.00;52743.94;5021948;28;20306;-73
2023/04/14 09:01:32;;;;;;;;;;;;;;;-140.72;0.00;52733.78;5024709;28;19925;-73
2023/04/14 09:03:57;;;;;;;;;;;;;;;-140.72;0.00;52723.66;5045742;28;19929;-70
2023/04/14 09:06:22;;;;;;;;;;;;;;;-140.72;0.00;52709.44;5026827;28;19934;-70
2023/04/14 09:08:48;;;;;;;;;;;;;;;-140.72;0.00;52626.25;5025857;28;20302;-70
2023/04/14 09:11:14;;;;;;;;;;;;;;;-140.72;0.00;52614.06;5025827;28;19928;-70
2023/04/14 09:13:40;;;;;;;;;;;;;;;-140.72;0.00;52614.06;5028533;28;19925;-68
2023/04/14 09:16:06;;;;;;;;;;;;;;;-140.72;0.00;52545.06;5025314;28;19933;-68
2023/04/14 09:18:32;;;;;;;;;;;;;;;-140.72;0.00;52557.25;5025938;28;20448;-71
2023/04/14 09:20:58;;;;;;;;;;;;;;;-140.72;0.00;52549.13;5024408;28;19966;-71
2023/04/14 09:23:23;;;;;;;;;;;;;;;-140.72;0.00;52551.16;5024873;28;19925;-68
2023/04/14 09:25:49;;;;;;;;;;;;;;;-140.72;0.00;52555.22;5025342;28;19956;-69
2023/04/14 09:28:15;;;;;;;;;;;;;;;-140.72;0.00;52642.47;5025990;28;19925;-68
2023/04/14 09:30:41;;;;;;;;;;;;;;;-140.72;0.00;52512.59;5027953;27;19935;-69
2023/04/14 09:33:16;;;;;;;;;;;;;;;-140.72;0.00;52520.72;5032112;27;19928;-71
2023/04/14 09:35:43;;;;;;;;;;;;;;;-140.72;0.00;52516.66;5025214;28;19929;-70
2023/04/14 09:38:08;;;;;;;;;;;;;;;-140.72;0.00;52532.91;5025644;28;20004;-72
2023/04/14 09:40:33;;;;;;;;;;;;;;;-140.72;0.00;52532.91;5022849;28;20012;-71
2023/04/14 09:42:59;;;;;;;;;;;;;;;-140.72;0.00;52504.50;5022209;27;20008;-73
2023/04/14 09:45:41;;;;;;;;;;;;;;;-140.72;0.00;52547.09;5023723;28;20020;-74
2023/04/14 09:48:07;;;;;;;;;;;;;;;-140.72;0.00;52541.03;5025117;28;20287;-73
2023/04/14 09:50:52;;;;;;;;;;;;;;;-140.72;0.00;52506.53;5028395;28;19921;-74
2023/04/14 09:53:23;;;;;;;;;;;;;;;-140.72;0.00;52429.41;5020326;27;20554;-73
2023/04/14 09:55:49;;;;;;;;;;;;;;;-140.72;0.00;52463.91;5064728;27;20358;-71
2023/04/14 09:58:20;;;;;;;;;;;;;;;-140.72;0.00;52443.63;5067643;27;20439;-71
2023/04/14 10:00:46;;;;;;;;;;;;;;;-140.72;0.00;52492.31;5049698;27;20286;-72
2023/04/14 10:03:11;;;;;;;;;;;;;;;-140.72;0.00;52549.13;5028286;28;19925;-72
2023/04/14 10:05:36;;;;;;;;;;;;;;;-140.72;0.00;52561.31;5029574;28;19917;-70
2023/04/14 10:08:02;;;;;;;;;;;;;;;-140.72;0.00;52413.19;5021698;28;19925;-72
2023/04/14 10:10:28;;;;;;;;;;;;;;;-140.72;0.00;52508.56;5028037;28;20379;-73
2023/04/14 10:13:04;;;;;;;;;;;;;;;-140.72;0.00;52622.19;5030125;28;20294;-70
2023/04/14 10:15:29;;;;;;;;;;;;;;;-140.72;0.00;52532.91;5028293;28;20001;-69
2023/04/14 10:17:55;;;;;;;;;;;;;;;-140.72;0.00;52447.69;5031974;28;19962;-69
2023/04/14 10:20:20;;;;;;;;;;;;;;;-140.72;0.00;52423.31;5031093;28;20008;-71
2023/04/14 10:22:46;;;;;;;;;;;;;;;-140.72;0.00;52356.38;5030424;28;19971;-70
2023/04/14 10:25:12;;;;;;;;;;;;;;;-140.72;0.00;52386.81;5021797;28;19922;-72
2023/04/14 10:27:38;;;;;;;;;;;;;;;-140.72;0.00;52330.00;5030924;28;19917;-72
2023/04/14 10:30:04;;;;;;;;;;;;;;;-140.72;0.00;52289.41;5088692;27;19964;-71
2023/04/14 10:32:31;;;;;;;;;;;;;;;-140.72;0.00;52261.00;5040269;27;20362;-69
2023/04/14 10:35:06;;;;;;;;;;;;;;;-140.72;0.00;52303.59;5024627;28;19948;-74
2023/04/14 10:37:32;;;;;;;;;;;;;;;-140.72;0.00;52340.13;5024446;28;19921;-70
2023/04/14 10:39:59;;;;;;;;;;;;;;;-140.72;0.00;52439.56;5030489;28;19970;-69
2023/04/14 10:42:25;;;;;;;;;;;;;;;-140.72;0.00;52463.91;5044105;28;19917;-69
2023/04/14 10:45:04;;;;;;;;;;;;;;;-140.72;0.00;52362.44;5030975;28;19936;-70
2023/04/14 10:47:30;;;;;;;;;;;;;;;-140.72;0.00;52492.31;5026538;28;20391;-73
2023/04/14 10:49:55;;;;;;;;;;;;;;;-140.72;0.00;52407.09;5023910;28;19921;-69
2023/04/14 10:52:21;;;;;;;;;;;;;;;-140.72;0.00;52386.81;5027347;28;19950;-71
2023/04/14 10:55:06;;;;;;;;;;;;;;;-140.72;0.00;52506.53;5023418;28;19921;-71
2023/04/14 10:57:35;;;;;;;;;;;;;;;-140.72;0.00;52439.56;5022733;28;19939;-71
2023/04/14 11:03:06;;;;;;;;;;;;;;;-140.72;0.00;52307.66;5027840;28;19981;-70
2023/04/14 11:05:32;;;;;;;;;;;;;;;-140.72;0.00;52232.59;5029223;28;19925;-69
2023/04/14 11:08:00;;;;;;;;;;;;;;;-140.72;0.00;52439.56;5029183;28;19917;-67
2023/04/14 11:10:26;;;;;;;;;;;;;;;-140.72;0.00;52340.13;5025802;28;20383;-68
2023/04/14 11:12:58;;;;;;;;;;;;;;;-140.72;0.00;52338.09;5026895;28;19952;-68
2023/04/14 11:15:41;;;;;;;;;;;;;;;-140.72;0.00;52411.16;5025547;28;19922;-73
2023/04/14 11:18:11;;;;;;;;;;;;;;;-140.72;0.00;52589.72;5026804;28;19925;-68
2023/04/14 11:20:38;;;;;;;;;;;;;;;-140.72;0.00;52638.41;5022473;28;20307;-70
2023/04/14 11:23:15;;;;;;;;;;;;;;;-140.72;0.00;52575.50;5028236;28;19947;-68
2023/04/14 11:25:49;;;;;;;;;;;;;;;-140.72;0.00;52614.06;5022372;28;19925;-68
2023/04/14 11:28:14;;;;;;;;;;;;;;;-140.72;0.00;52660.75;5019562;28;20366;-68
2023/04/14 11:30:40;;;;;;;;;;;;;;;-140.72;0.00;52672.91;5025780;28;19944;-69
2023/04/14 11:33:06;;;;;;;;;;;;;;;-140.72;0.00;52626.25;5025310;28;19921;-68
2023/04/14 11:35:31;;;;;;;;;;;;;;;-140.72;0.00;52419.28;5023055;28;19971;-70
2023/04/14 11:37:57;;;;;;;;;;;;;;;-140.72;0.00;52277.22;5028087;28;19921;-69
2023/04/14 11:40:23;;;;;;;;;;;;;;;-140.72;0.00;52224.47;5024824;28;20423;-74
2023/04/14 11:42:54;;;;;;;;;;;;;;;-140.72;0.00;52384.78;5023714;28;19953;-73
2023/04/14 11:45:19;;;;;;;;;;;;;;;-140.72;0.00;52429.41;5049541;28;19948;-75
2023/04/14 11:48:04;;;;;;;;;;;;;;;-140.72;0.00;52368.53;5028955;28;19921;-74
2023/04/14 11:50:31;;;;;;;;;;;;;;;-140.72;0.00;52273.19;5030492;28;19917;-77
2023/04/14 11:52:58;;;;;;;;;;;;;;;-140.72;0.00;52263.03;5012575;28;20363;-74
2023/04/14 11:55:23;;;;;;;;;;;;;;;-140.72;0.00;52161.56;5018757;28;19917;-73
2023/04/14 11:57:49;;;;;;;;;;;;;;;-140.72;0.00;52153.47;5028834;28;19921;-74
2023/04/14 12:00:14;;;;;;;;;;;;;;;-140.72;0.00;52364.47;5028734;28;20026;-71
2023/04/14 12:02:45;;;;;;;;;;;;;;;-140.72;0.00;52435.50;5025209;28;19928;-70
2023/04/14 12:05:12;;;;;;;;;;;;;;;-140.72;0.00;52520.72;5021115;28;20405;-71
2023/04/14 12:07:40;;;;;;;;;;;;;;;-140.72;0.00;52504.50;5026136;28;20344;-74
2023/04/14 12:10:06;;;;;;;;;;;;;;;-140.72;0.00;52516.66;5035654;28;20322;-69
2023/04/14 12:12:32;;;;;;;;;;;;;;;-140.72;0.00;52573.50;5023853;28;20041;-72
2023/04/14 12:14:57;;;;;;;;;;;;;;;-140.72;0.00;52618.13;5031390;28;20367;-70
2023/04/14 12:17:23;;;;;;;;;;;;;;;-140.72;0.00;52603.94;5030121;28;19943;-71
2023/04/14 12:19:48;;;;;;;;;;;;;;;-140.72;0.00;52520.72;5026857;28;19921;-72
2023/04/14 12:22:21;;;;;;;;;;;;;;;-140.72;0.00;52585.66;5025754;28;19933;-72
2023/04/14 12:24:46;;;;;;;;;;;;;;;-140.72;0.00;52581.59;5025733;28;20170;-71